Terminal Aerodrome Forecast
Issued by NWS

Home | Current Version | Previous Version | Text Only | Print | Product List | Glossary On
Versions: 1 2 3 4 5 6 7 8 9 10 11 12 13 14 15
000
FTUS42 KRAH 191126
TAFRWI
TAF
KRWI 191126Z 1912/2012 02010KT P6SM -RA OVC070
     FM191600 04012G22KT P6SM -RA SCT009 BKN015 OVC050
     FM192100 04010G17KT P6SM OVC060=

USA.gov is the U.S. government's official web portal to all federal, state and local government web resources and services.